首页
METAR-TAF:

METAR-TAF

机场 :

Ponta Delgada, 亚速尔群岛, 葡萄牙

纬度: 37-44N, 经度: 025-42W, 海拔: 71米

当前天气观测

该预报发布于16分钟前的08:30 UTC
风速3节,风向,在东北东南之间变化
温度 21°C
湿度 83%
气压 1023 hPa
能见度10公里或以上
少量云层高于2000英尺
多云层高于4500英尺

METAR: LPPD 140830Z 10003KT 040V130 9999 FEW020 BKN045 21/18 Q1023

时间: 08:46 (08:46 UTC)

预报

该预报发布于3小时和36分钟前的05:10 UTC
预报有效从14日的 06点(UTC)到 15日的 06点(UTC)
风速5节,风向多变
能见度10公里或以上
散云层高于2000英尺

TAF: LPPD 140510Z 1406/1506 VRB05KT 9999 SCT020

超过4000个机场的气象观测和天气预报(METAR&TAF报告)。

可查询的气象台以黄色和红色小点在地图上表示。

将鼠标移到小点上方,可查看气象台名称。

然后点击查看天气观测和预报。

如需切换地图:点击带黑十字的绿色按钮放大地图;点击带横线的绿色按钮缩小地图;或者点击绿色箭头查看邻近地区的地图。


METAR-TAF: